Terminal Aerodrome Forecast
Issued by NWS

Home | Current Version | Previous Version | Text Only | Print | Product List | Glossary On
Versions: 1 2 3 4 5 6 7 8 9 10 11 12 13 14 15 16 17 18 19 20 21 22 23 24 25 26 27 28
000
FTUS41 KCAR 020500
TAFPQI
TAF
KPQI 020520Z 0206/0306 00000KT P6SM SCT100
     FM021000 VRB03KT 1SM BR BKN002
     FM021200 VRB03KT P6SM FEW070 SCT200
     FM021900 21007KT P6SM VCSH SCT050 BKN080
      AMD LTD TO CLD VIS AND WIND=

USA.gov is the U.S. government's official web portal to all federal, state and local government web resources and services.